sensor_id;sensor_type;location;lat;lon;timestamp;pressure;altitude;pressure_sealevel;temperature;humidity
55687;BME280;41911;52.362;4.978;2022-10-16T00:00:10;100849.33;;;13.27;51.09
55687;BME280;41911;52.362;4.978;2022-10-16T00:00:42;100841.29;;;12.81;51.32
55687;BME280;41911;52.362;4.978;2022-10-16T00:01:15;100842.91;;;12.56;51.38
55687;BME280;41911;52.362;4.978;2022-10-16T00:01:46;100844.71;;;12.91;51.28
55687;BME280;41911;52.362;4.978;2022-10-16T00:02:17;100842.74;;;12.84;50.94
55687;BME280;41911;52.362;4.978;2022-10-16T00:02:48;100841.46;;;12.92;50.71
55687;BME280;41911;52.362;4.978;2022-10-16T00:03:19;100838.75;;;13.26;50.65
55687;BME280;41911;52.362;4.978;2022-10-16T00:03:50;100838.00;;;13.35;50.58
55687;BME280;41911;52.362;4.978;2022-10-16T00:04:22;100838.12;;;12.96;50.91
55687;BME280;41911;52.362;4.978;2022-10-16T00:04:53;100841.49;;;13.10;50.63
55687;BME280;41911;52.362;4.978;2022-10-16T00:05:24;100843.06;;;13.20;50.29
55687;BME280;41911;52.362;4.978;2022-10-16T00:05:59;100849.13;;;13.19;50.52
55687;BME280;41911;52.362;4.978;2022-10-16T00:06:31;100845.77;;;13.21;50.17
55687;BME280;41911;52.362;4.978;2022-10-16T00:07:07;100842.54;;;12.80;51.07
55687;BME280;41911;52.362;4.978;2022-10-16T00:07:38;100844.15;;;13.00;50.47
55687;BME280;41911;52.362;4.978;2022-10-16T00:08:10;100842.43;;;12.24;51.55
55687;BME280;41911;52.362;4.978;2022-10-16T00:08:42;100842.00;;;12.76;50.89
55687;BME280;41911;52.362;4.978;2022-10-16T00:09:13;100838.59;;;13.03;51.30
55687;BME280;41911;52.362;4.978;2022-10-16T00:09:45;100836.39;;;12.72;51.28
55687;BME280;41911;52.362;4.978;2022-10-16T00:10:16;100836.72;;;12.97;51.06
55687;BME280;41911;52.362;4.978;2022-10-16T00:10:47;100832.50;;;12.98;50.60
55687;BME280;41911;52.362;4.978;2022-10-16T00:11:21;100836.46;;;13.32;50.26
55687;BME280;41911;52.362;4.978;2022-10-16T00:11:52;100834.52;;;13.28;49.79
55687;BME280;41911;52.362;4.978;2022-10-16T00:12:23;100832.99;;;12.93;50.13
55687;BME280;41911;52.362;4.978;2022-10-16T00:12:54;100834.75;;;13.57;49.57
55687;BME280;41911;52.362;4.978;2022-10-16T00:13:25;100834.02;;;13.51;49.15
55687;BME280;41911;52.362;4.978;2022-10-16T00:13:58;100831.89;;;13.14;49.43
55687;BME280;41911;52.362;4.978;2022-10-16T00:14:29;100830.29;;;12.61;50.46
55687;BME280;41911;52.362;4.978;2022-10-16T00:15:00;100833.84;;;13.05;50.37
55687;BME280;41911;52.362;4.978;2022-10-16T00:15:33;100832.15;;;13.09;50.11
55687;BME280;41911;52.362;4.978;2022-10-16T00:16:05;100831.98;;;13.40;50.18
55687;BME280;41911;52.362;4.978;2022-10-16T00:16:36;100831.20;;;13.50;50.12
55687;BME280;41911;52.362;4.978;2022-10-16T00:17:07;100834.15;;;13.17;50.13
55687;BME280;41911;52.362;4.978;2022-10-16T00:17:38;100829.93;;;13.28;50.01
55687;BME280;41911;52.362;4.978;2022-10-16T00:18:10;100833.10;;;13.02;50.03
55687;BME280;41911;52.362;4.978;2022-10-16T00:18:41;100834.48;;;13.11;50.45
55687;BME280;41911;52.362;4.978;2022-10-16T00:19:13;100834.13;;;12.55;50.94
55687;BME280;41911;52.362;4.978;2022-10-16T00:19:44;100835.03;;;13.14;50.36
55687;BME280;41911;52.362;4.978;2022-10-16T00:20:15;100838.52;;;13.05;50.82
55687;BME280;41911;52.362;4.978;2022-10-16T00:20:46;100837.68;;;13.10;51.19
55687;BME280;41911;52.362;4.978;2022-10-16T00:21:20;100837.69;;;13.11;50.89
55687;BME280;41911;52.362;4.978;2022-10-16T00:21:51;100839.71;;;12.46;51.84
55687;BME280;41911;52.362;4.978;2022-10-16T00:22:22;100839.79;;;12.75;51.39
55687;BME280;41911;52.362;4.978;2022-10-16T00:22:53;100841.00;;;13.00;51.05
55687;BME280;41911;52.362;4.978;2022-10-16T00:23:24;100839.29;;;12.89;51.24
55687;BME280;41911;52.362;4.978;2022-10-16T00:23:57;100836.65;;;12.73;51.01
55687;BME280;41911;52.362;4.978;2022-10-16T00:24:28;100840.10;;;12.54;51.21
55687;BME280;41911;52.362;4.978;2022-10-16T00:24:59;100843.22;;;12.71;50.97
55687;BME280;41911;52.362;4.978;2022-10-16T00:25:30;100840.55;;;12.63;51.07
55687;BME280;41911;52.362;4.978;2022-10-16T00:26:04;100841.75;;;12.39;51.50
55687;BME280;41911;52.362;4.978;2022-10-16T00:26:38;100841.39;;;12.33;51.62
55687;BME280;41911;52.362;4.978;2022-10-16T00:27:09;100840.37;;;12.41;51.54
55687;BME280;41911;52.362;4.978;2022-10-16T00:27:40;100843.03;;;12.26;51.88
55687;BME280;41911;52.362;4.978;2022-10-16T00:28:11;100840.68;;;12.68;51.56
55687;BME280;41911;52.362;4.978;2022-10-16T00:28:45;100842.77;;;12.62;51.40
55687;BME280;41911;52.362;4.978;2022-10-16T00:29:16;100841.38;;;13.10;50.54
55687;BME280;41911;52.362;4.978;2022-10-16T00:29:49;100846.06;;;12.94;50.84
55687;BME280;41911;52.362;4.978;2022-10-16T00:30:20;100845.21;;;12.97;50.75
55687;BME280;41911;52.362;4.978;2022-10-16T00:30:51;100845.68;;;12.39;51.74
55687;BME280;41911;52.362;4.978;2022-10-16T00:31:23;100848.44;;;12.69;51.23
55687;BME280;41911;52.362;4.978;2022-10-16T00:31:54;100841.60;;;12.61;51.56
55687;BME280;41911;52.362;4.978;2022-10-16T00:32:25;100840.33;;;12.58;51.52
55687;BME280;41911;52.362;4.978;2022-10-16T00:32:56;100845.08;;;12.47;51.48
55687;BME280;41911;52.362;4.978;2022-10-16T00:33:27;100844.93;;;12.88;51.34
55687;BME280;41911;52.362;4.978;2022-10-16T00:33:58;100847.95;;;12.58;51.32
55687;BME280;41911;52.362;4.978;2022-10-16T00:34:29;100848.79;;;13.06;51.27
55687;BME280;41911;52.362;4.978;2022-10-16T00:35:00;100850.46;;;12.89;50.90
55687;BME280;41911;52.362;4.978;2022-10-16T00:35:32;100842.11;;;12.69;50.96
55687;BME280;41911;52.362;4.978;2022-10-16T00:36:04;100842.68;;;12.58;51.24
55687;BME280;41911;52.362;4.978;2022-10-16T00:36:36;100841.16;;;12.79;51.44
55687;BME280;41911;52.362;4.978;2022-10-16T00:37:07;100841.84;;;12.32;51.79
55687;BME280;41911;52.362;4.978;2022-10-16T00:37:38;100840.97;;;12.65;51.51
55687;BME280;41911;52.362;4.978;2022-10-16T00:38:09;100841.77;;;12.01;52.41
55687;BME280;41911;52.362;4.978;2022-10-16T00:38:40;100842.81;;;12.24;52.19
55687;BME280;41911;52.362;4.978;2022-10-16T00:39:13;100841.66;;;12.39;51.08
55687;BME280;41911;52.362;4.978;2022-10-16T00:39:44;100835.78;;;12.22;52.00
55687;BME280;41911;52.362;4.978;2022-10-16T00:40:16;100837.42;;;12.47;51.70
55687;BME280;41911;52.362;4.978;2022-10-16T00:40:47;100844.63;;;12.64;51.08
55687;BME280;41911;52.362;4.978;2022-10-16T00:41:18;100838.60;;;12.66;51.17
55687;BME280;41911;52.362;4.978;2022-10-16T00:41:49;100835.06;;;12.89;51.08
55687;BME280;41911;52.362;4.978;2022-10-16T00:42:20;100836.65;;;12.12;51.16
55687;BME280;41911;52.362;4.978;2022-10-16T00:42:51;100834.75;;;12.56;51.32
55687;BME280;41911;52.362;4.978;2022-10-16T00:43:44;100836.58;;;12.60;50.91
55687;BME280;41911;52.362;4.978;2022-10-16T00:44:51;100838.08;;;12.63;50.89
55687;BME280;41911;52.362;4.978;2022-10-16T00:45:23;100838.47;;;12.75;50.73
55687;BME280;41911;52.362;4.978;2022-10-16T00:45:54;100836.33;;;12.41;51.23
55687;BME280;41911;52.362;4.978;2022-10-16T00:46:27;100837.79;;;12.32;51.36
55687;BME280;41911;52.362;4.978;2022-10-16T00:47:00;100837.82;;;12.41;51.19
55687;BME280;41911;52.362;4.978;2022-10-16T00:47:35;100834.54;;;12.49;51.09
55687;BME280;41911;52.362;4.978;2022-10-16T00:48:12;100834.35;;;12.51;51.10
55687;BME280;41911;52.362;4.978;2022-10-16T00:48:47;100831.04;;;12.05;52.08
55687;BME280;41911;52.362;4.978;2022-10-16T00:49:19;100828.98;;;12.33;51.55
55687;BME280;41911;52.362;4.978;2022-10-16T00:49:56;100831.30;;;12.17;51.67
55687;BME280;41911;52.362;4.978;2022-10-16T00:50:32;100828.62;;;12.52;51.19
55687;BME280;41911;52.362;4.978;2022-10-16T00:51:04;100829.49;;;12.39;51.43
55687;BME280;41911;52.362;4.978;2022-10-16T00:51:39;100830.06;;;11.86;52.08
55687;BME280;41911;52.362;4.978;2022-10-16T00:52:11;100829.19;;;12.12;51.77
55687;BME280;41911;52.362;4.978;2022-10-16T00:52:46;100829.26;;;12.39;51.65
55687;BME280;41911;52.362;4.978;2022-10-16T00:53:18;100831.15;;;12.40;51.26
55687;BME280;41911;52.362;4.978;2022-10-16T00:53:50;100834.09;;;12.33;51.47
55687;BME280;41911;52.362;4.978;2022-10-16T00:54:24;100828.38;;;12.35;51.42
55687;BME280;41911;52.362;4.978;2022-10-16T00:54:56;100827.50;;;12.40;51.71
55687;BME280;41911;52.362;4.978;2022-10-16T00:55:28;100825.81;;;12.25;51.78
55687;BME280;41911;52.362;4.978;2022-10-16T00:56:29;100827.45;;;11.90;52.02
55687;BME280;41911;52.362;4.978;2022-10-16T00:57:02;100830.75;;;11.96;51.95
55687;BME280;41911;52.362;4.978;2022-10-16T00:57:34;100829.19;;;12.09;52.05
55687;BME280;41911;52.362;4.978;2022-10-16T00:58:05;100831.16;;;12.03;52.08
55687;BME280;41911;52.362;4.978;2022-10-16T00:58:36;100828.44;;;12.17;51.67
55687;BME280;41911;52.362;4.978;2022-10-16T00:59:39;100830.69;;;12.37;51.66
55687;BME280;41911;52.362;4.978;2022-10-16T01:00:14;100834.95;;;12.60;51.04
55687;BME280;41911;52.362;4.978;2022-10-16T01:00:46;100832.74;;;12.50;50.98
55687;BME280;41911;52.362;4.978;2022-10-16T01:01:17;100837.05;;;12.69;50.73
55687;BME280;41911;52.362;4.978;2022-10-16T01:01:48;100836.88;;;12.84;50.48
55687;BME280;41911;52.362;4.978;2022-10-16T01:02:21;100837.66;;;12.81;50.24
55687;BME280;41911;52.362;4.978;2022-10-16T01:02:54;100840.24;;;12.35;50.76
55687;BME280;41911;52.362;4.978;2022-10-16T01:03:28;100839.14;;;12.32;51.47
55687;BME280;41911;52.362;4.978;2022-10-16T01:04:00;100837.54;;;12.18;51.46
55687;BME280;41911;52.362;4.978;2022-10-16T01:04:34;100837.89;;;12.67;51.01
55687;BME280;41911;52.362;4.978;2022-10-16T01:05:06;100838.46;;;12.78;50.46
55687;BME280;41911;52.362;4.978;2022-10-16T01:05:42;100841.41;;;12.60;50.98
55687;BME280;41911;52.362;4.978;2022-10-16T01:06:24;100836.51;;;12.45;50.79
55687;BME280;41911;52.362;4.978;2022-10-16T01:07:07;100838.86;;;12.16;51.48
55687;BME280;41911;52.362;4.978;2022-10-16T01:07:50;100838.52;;;12.64;51.00
55687;BME280;41911;52.362;4.978;2022-10-16T01:08:31;100839.78;;;12.11;51.36
55687;BME280;41911;52.362;4.978;2022-10-16T01:09:14;100841.81;;;12.48;52.35
55687;BME280;41911;52.362;4.978;2022-10-16T01:09:55;100851.17;;;11.60;52.49
55687;BME280;41911;52.362;4.978;2022-10-16T01:10:35;100843.32;;;11.88;52.16
55687;BME280;41911;52.362;4.978;2022-10-16T01:11:18;100842.24;;;12.15;51.55
55687;BME280;41911;52.362;4.978;2022-10-16T01:12:01;100846.66;;;12.35;51.72
55687;BME280;41911;52.362;4.978;2022-10-16T01:12:41;100846.14;;;12.19;51.63
55687;BME280;41911;52.362;4.978;2022-10-16T01:13:21;100841.91;;;12.41;51.51
55687;BME280;41911;52.362;4.978;2022-10-16T01:14:00;100838.76;;;12.55;50.90
55687;BME280;41911;52.362;4.978;2022-10-16T01:14:40;100839.57;;;12.35;51.65
55687;BME280;41911;52.362;4.978;2022-10-16T01:15:19;100838.01;;;12.11;51.64
55687;BME280;41911;52.362;4.978;2022-10-16T01:16:01;100847.90;;;12.15;51.86
55687;BME280;41911;52.362;4.978;2022-10-16T01:16:43;100843.40;;;12.12;51.77
55687;BME280;41911;52.362;4.978;2022-10-16T01:17:21;100844.84;;;12.28;51.53
55687;BME280;41911;52.362;4.978;2022-10-16T01:17:59;100846.22;;;12.37;51.21
55687;BME280;41911;52.362;4.978;2022-10-16T01:18:37;100848.39;;;12.43;51.85
55687;BME280;41911;52.362;4.978;2022-10-16T01:19:15;100846.88;;;12.27;51.17
55687;BME280;41911;52.362;4.978;2022-10-16T01:20:06;100847.94;;;12.08;51.58
55687;BME280;41911;52.362;4.978;2022-10-16T01:20:44;100845.23;;;12.41;51.09
55687;BME280;41911;52.362;4.978;2022-10-16T01:21:25;100849.02;;;12.19;51.79
55687;BME280;41911;52.362;4.978;2022-10-16T01:22:00;100845.62;;;12.40;51.16
55687;BME280;41911;52.362;4.978;2022-10-16T01:22:39;100844.46;;;12.31;51.32
55687;BME280;41911;52.362;4.978;2022-10-16T01:23:27;100848.16;;;12.48;51.74
55687;BME280;41911;52.362;4.978;2022-10-16T01:24:05;100848.21;;;12.39;51.50
55687;BME280;41911;52.362;4.978;2022-10-16T01:24:41;100850.59;;;12.58;50.95
55687;BME280;41911;52.362;4.978;2022-10-16T01:25:25;100848.86;;;12.58;51.01
55687;BME280;41911;52.362;4.978;2022-10-16T01:26:20;100850.10;;;12.69;50.73
55687;BME280;41911;52.362;4.978;2022-10-16T01:27:05;100846.31;;;12.39;51.19
55687;BME280;41911;52.362;4.978;2022-10-16T01:27:39;100847.28;;;12.42;51.25
55687;BME280;41911;52.362;4.978;2022-10-16T01:28:12;100850.11;;;12.79;50.73
55687;BME280;41911;52.362;4.978;2022-10-16T01:28:49;100845.97;;;12.61;50.98
55687;BME280;41911;52.362;4.978;2022-10-16T01:29:26;100843.14;;;12.93;50.58
55687;BME280;41911;52.362;4.978;2022-10-16T01:30:10;100842.26;;;12.31;50.74
55687;BME280;41911;52.362;4.978;2022-10-16T01:30:45;100842.12;;;12.32;51.25
55687;BME280;41911;52.362;4.978;2022-10-16T01:31:19;100839.56;;;12.33;51.21
55687;BME280;41911;52.362;4.978;2022-10-16T01:31:56;100844.84;;;12.11;51.71
55687;BME280;41911;52.362;4.978;2022-10-16T01:32:36;100843.19;;;12.11;51.47
55687;BME280;41911;52.362;4.978;2022-10-16T01:33:16;100843.57;;;12.12;51.51
55687;BME280;41911;52.362;4.978;2022-10-16T01:34:02;100844.23;;;12.31;51.36
55687;BME280;41911;52.362;4.978;2022-10-16T01:34:41;100845.22;;;12.68;50.92
55687;BME280;41911;52.362;4.978;2022-10-16T01:35:16;100839.95;;;12.42;51.35
55687;BME280;41911;52.362;4.978;2022-10-16T01:35:54;100841.61;;;12.52;50.98
55687;BME280;41911;52.362;4.978;2022-10-16T01:36:35;100845.27;;;12.23;51.08
55687;BME280;41911;52.362;4.978;2022-10-16T01:37:12;100843.68;;;12.15;51.44
55687;BME280;41911;52.362;4.978;2022-10-16T01:37:51;100847.03;;;11.99;51.66
55687;BME280;41911;52.362;4.978;2022-10-16T01:38:29;100845.20;;;12.33;51.30
55687;BME280;41911;52.362;4.978;2022-10-16T01:39:02;100842.97;;;12.42;51.12
55687;BME280;41911;52.362;4.978;2022-10-16T01:39:35;100844.97;;;12.78;50.67
55687;BME280;41911;52.362;4.978;2022-10-16T01:40:12;100846.95;;;12.96;50.27
55687;BME280;41911;52.362;4.978;2022-10-16T01:40:51;100842.51;;;12.59;50.96
55687;BME280;41911;52.362;4.978;2022-10-16T01:41:30;100844.81;;;12.64;50.66
55687;BME280;41911;52.362;4.978;2022-10-16T01:42:06;100843.56;;;12.60;50.98
55687;BME280;41911;52.362;4.978;2022-10-16T01:42:41;100845.20;;;12.45;51.19
55687;BME280;41911;52.362;4.978;2022-10-16T01:43:17;100843.43;;;12.10;51.57
55687;BME280;41911;52.362;4.978;2022-10-16T01:43:56;100844.36;;;12.69;51.44
55687;BME280;41911;52.362;4.978;2022-10-16T01:44:32;100839.82;;;12.52;51.11
55687;BME280;41911;52.362;4.978;2022-10-16T01:45:05;100841.27;;;12.56;51.27
55687;BME280;41911;52.362;4.978;2022-10-16T01:45:38;100840.54;;;12.39;51.56
55687;BME280;41911;52.362;4.978;2022-10-16T01:46:15;100842.43;;;12.27;51.66
55687;BME280;41911;52.362;4.978;2022-10-16T01:46:54;100844.57;;;12.29;51.78
55687;BME280;41911;52.362;4.978;2022-10-16T01:47:27;100848.12;;;12.12;51.63
55687;BME280;41911;52.362;4.978;2022-10-16T01:47:59;100851.61;;;11.86;52.56
55687;BME280;41911;52.362;4.978;2022-10-16T01:48:31;100853.62;;;12.08;52.60
55687;BME280;41911;52.362;4.978;2022-10-16T01:49:04;100850.51;;;12.03;52.77
55687;BME280;41911;52.362;4.978;2022-10-16T01:49:38;100855.98;;;12.13;52.83
55687;BME280;41911;52.362;4.978;2022-10-16T01:50:14;100858.66;;;12.19;53.03
55687;BME280;41911;52.362;4.978;2022-10-16T01:50:52;100855.59;;;11.47;52.86
55687;BME280;41911;52.362;4.978;2022-10-16T01:51:25;100851.47;;;12.11;52.40
55687;BME280;41911;52.362;4.978;2022-10-16T01:51:59;100847.60;;;12.23;52.90
55687;BME280;41911;52.362;4.978;2022-10-16T01:52:37;100853.92;;;11.80;53.00
55687;BME280;41911;52.362;4.978;2022-10-16T01:53:13;100851.07;;;12.46;52.50
55687;BME280;41911;52.362;4.978;2022-10-16T01:53:48;100846.00;;;12.28;52.61
55687;BME280;41911;52.362;4.978;2022-10-16T01:54:23;100847.78;;;12.14;52.59
55687;BME280;41911;52.362;4.978;2022-10-16T01:55:05;100845.11;;;12.33;52.17
55687;BME280;41911;52.362;4.978;2022-10-16T01:55:38;100845.33;;;12.07;52.54
55687;BME280;41911;52.362;4.978;2022-10-16T01:56:15;100844.97;;;12.40;52.62
55687;BME280;41911;52.362;4.978;2022-10-16T01:56:49;100843.40;;;12.64;51.70
55687;BME280;41911;52.362;4.978;2022-10-16T01:57:24;100843.37;;;12.34;52.36
55687;BME280;41911;52.362;4.978;2022-10-16T01:57:56;100840.95;;;12.48;52.38
55687;BME280;41911;52.362;4.978;2022-10-16T01:58:30;100849.44;;;11.73;53.31
55687;BME280;41911;52.362;4.978;2022-10-16T01:59:09;100845.45;;;11.92;53.03
55687;BME280;41911;52.362;4.978;2022-10-16T01:59:44;100843.58;;;11.97;52.90
55687;BME280;41911;52.362;4.978;2022-10-16T02:00:18;100841.54;;;12.40;52.45
55687;BME280;41911;52.362;4.978;2022-10-16T02:00:50;100840.69;;;12.17;52.66
55687;BME280;41911;52.362;4.978;2022-10-16T02:01:25;100845.19;;;11.86;52.70
55687;BME280;41911;52.362;4.978;2022-10-16T02:02:04;100842.74;;;12.19;52.67
55687;BME280;41911;52.362;4.978;2022-10-16T02:02:36;100847.84;;;11.99;53.02
55687;BME280;41911;52.362;4.978;2022-10-16T02:03:12;100854.92;;;11.69;53.53
55687;BME280;41911;52.362;4.978;2022-10-16T02:03:46;100848.13;;;12.04;52.94
55687;BME280;41911;52.362;4.978;2022-10-16T02:04:24;100849.64;;;11.87;53.33
55687;BME280;41911;52.362;4.978;2022-10-16T02:05:04;100848.60;;;11.98;53.00
55687;BME280;41911;52.362;4.978;2022-10-16T02:05:42;100850.91;;;12.38;52.75
55687;BME280;41911;52.362;4.978;2022-10-16T02:06:15;100848.74;;;11.93;53.16
55687;BME280;41911;52.362;4.978;2022-10-16T02:06:46;100845.20;;;12.59;52.54
55687;BME280;41911;52.362;4.978;2022-10-16T02:07:17;100847.32;;;12.51;52.24
55687;BME280;41911;52.362;4.978;2022-10-16T02:07:49;100846.67;;;12.42;52.40
55687;BME280;41911;52.362;4.978;2022-10-16T02:08:21;100849.51;;;12.65;52.47
55687;BME280;41911;52.362;4.978;2022-10-16T02:08:53;100850.59;;;12.50;52.93
55687;BME280;41911;52.362;4.978;2022-10-16T02:09:25;100852.59;;;11.96;53.31
55687;BME280;41911;52.362;4.978;2022-10-16T02:09:56;100852.85;;;11.87;53.43
55687;BME280;41911;52.362;4.978;2022-10-16T02:10:27;100857.06;;;12.04;53.65
55687;BME280;41911;52.362;4.978;2022-10-16T02:11:00;100857.58;;;11.87;53.52
55687;BME280;41911;52.362;4.978;2022-10-16T02:11:31;100861.31;;;12.15;54.09
55687;BME280;41911;52.362;4.978;2022-10-16T02:12:08;100856.45;;;12.44;53.47
55687;BME280;41911;52.362;4.978;2022-10-16T02:12:45;100860.47;;;12.47;53.74
55687;BME280;41911;52.362;4.978;2022-10-16T02:13:26;100857.59;;;12.11;53.55
55687;BME280;41911;52.362;4.978;2022-10-16T02:14:03;100858.04;;;12.16;53.56
55687;BME280;41911;52.362;4.978;2022-10-16T02:14:38;100859.90;;;11.77;54.06
55687;BME280;41911;52.362;4.978;2022-10-16T02:15:10;100858.21;;;12.35;53.47
55687;BME280;41911;52.362;4.978;2022-10-16T02:15:41;100856.91;;;12.71;53.46
55687;BME280;41911;52.362;4.978;2022-10-16T02:16:12;100857.56;;;11.99;53.68
55687;BME280;41911;52.362;4.978;2022-10-16T02:16:45;100854.97;;;11.96;53.74
55687;BME280;41911;52.362;4.978;2022-10-16T02:17:17;100865.22;;;12.40;53.89
55687;BME280;41911;52.362;4.978;2022-10-16T02:17:49;100865.74;;;12.40;53.68
55687;BME280;41911;52.362;4.978;2022-10-16T02:18:20;100863.17;;;12.67;53.67
55687;BME280;41911;52.362;4.978;2022-10-16T02:18:51;100869.52;;;11.80;54.49
55687;BME280;41911;52.362;4.978;2022-10-16T02:19:22;100869.09;;;11.65;54.47
55687;BME280;41911;52.362;4.978;2022-10-16T02:19:55;100866.86;;;11.86;54.66
55687;BME280;41911;52.362;4.978;2022-10-16T02:20:28;100867.98;;;12.05;54.54
55687;BME280;41911;52.362;4.978;2022-10-16T02:21:10;100871.96;;;11.99;54.33
55687;BME280;41911;52.362;4.978;2022-10-16T02:21:46;100867.86;;;12.55;54.29
55687;BME280;41911;52.362;4.978;2022-10-16T02:22:24;100870.57;;;12.23;54.20
55687;BME280;41911;52.362;4.978;2022-10-16T02:23:01;100871.93;;;12.18;53.86
55687;BME280;41911;52.362;4.978;2022-10-16T02:23:38;100875.82;;;11.88;54.76
55687;BME280;41911;52.362;4.978;2022-10-16T02:24:19;100876.96;;;12.10;54.71
55687;BME280;41911;52.362;4.978;2022-10-16T02:24:59;100874.69;;;11.87;54.44
55687;BME280;41911;52.362;4.978;2022-10-16T02:25:40;100873.15;;;11.80;54.96
55687;BME280;41911;52.362;4.978;2022-10-16T02:26:16;100873.11;;;11.84;55.61
55687;BME280;41911;52.362;4.978;2022-10-16T02:27:00;100883.44;;;11.99;55.36
55687;BME280;41911;52.362;4.978;2022-10-16T02:27:40;100881.78;;;11.96;54.91
55687;BME280;41911;52.362;4.978;2022-10-16T02:28:16;100879.17;;;12.65;54.38
55687;BME280;41911;52.362;4.978;2022-10-16T02:28:55;100879.44;;;11.90;54.70
55687;BME280;41911;52.362;4.978;2022-10-16T02:29:30;100881.12;;;11.98;54.46
55687;BME280;41911;52.362;4.978;2022-10-16T02:30:10;100880.84;;;11.58;55.25
55687;BME280;41911;52.362;4.978;2022-10-16T02:30:46;100878.41;;;11.98;54.95
55687;BME280;41911;52.362;4.978;2022-10-16T02:31:24;100875.44;;;12.37;54.47
55687;BME280;41911;52.362;4.978;2022-10-16T02:32:00;100872.86;;;12.02;54.24
55687;BME280;41911;52.362;4.978;2022-10-16T02:32:33;100873.52;;;12.05;54.82
55687;BME280;41911;52.362;4.978;2022-10-16T02:33:08;100874.66;;;11.64;55.05
55687;BME280;41911;52.362;4.978;2022-10-16T02:33:41;100874.15;;;11.91;55.13
55687;BME280;41911;52.362;4.978;2022-10-16T02:34:13;100877.48;;;11.54;55.39
55687;BME280;41911;52.362;4.978;2022-10-16T02:34:47;100880.83;;;11.59;55.43
55687;BME280;41911;52.362;4.978;2022-10-16T02:35:20;100875.49;;;11.80;55.12
55687;BME280;41911;52.362;4.978;2022-10-16T02:35:53;100871.09;;;12.18;55.02
55687;BME280;41911;52.362;4.978;2022-10-16T02:36:25;100875.95;;;12.06;55.33
55687;BME280;41911;52.362;4.978;2022-10-16T02:36:58;100877.95;;;11.75;55.31
55687;BME280;41911;52.362;4.978;2022-10-16T02:37:31;100877.75;;;12.10;55.22
55687;BME280;41911;52.362;4.978;2022-10-16T02:38:03;100873.56;;;12.11;54.83
55687;BME280;41911;52.362;4.978;2022-10-16T02:38:35;100874.84;;;12.19;55.02
55687;BME280;41911;52.362;4.978;2022-10-16T02:39:07;100880.49;;;12.16;55.13
55687;BME280;41911;52.362;4.978;2022-10-16T02:39:39;100878.92;;;12.47;54.87
55687;BME280;41911;52.362;4.978;2022-10-16T02:40:11;100877.44;;;12.58;54.57
55687;BME280;41911;52.362;4.978;2022-10-16T02:40:43;100878.16;;;12.31;54.74
55687;BME280;41911;52.362;4.978;2022-10-16T02:41:14;100877.54;;;12.14;54.61
55687;BME280;41911;52.362;4.978;2022-10-16T02:41:46;100879.88;;;12.12;55.12
55687;BME280;41911;52.362;4.978;2022-10-16T02:42:19;100882.09;;;12.11;55.32
55687;BME280;41911;52.362;4.978;2022-10-16T02:42:51;100879.76;;;11.77;55.26
55687;BME280;41911;52.362;4.978;2022-10-16T02:43:22;100878.24;;;11.99;55.50
55687;BME280;41911;52.362;4.978;2022-10-16T02:43:53;100882.71;;;11.60;56.16
55687;BME280;41911;52.362;4.978;2022-10-16T02:44:24;100884.36;;;11.71;56.10
55687;BME280;41911;52.362;4.978;2022-10-16T02:44:55;100884.84;;;11.25;56.60
55687;BME280;41911;52.362;4.978;2022-10-16T02:45:26;100887.43;;;11.45;56.71
55687;BME280;41911;52.362;4.978;2022-10-16T02:45:57;100885.06;;;11.49;56.50
55687;BME280;41911;52.362;4.978;2022-10-16T02:46:29;100882.83;;;11.76;56.62
55687;BME280;41911;52.362;4.978;2022-10-16T02:47:00;100886.70;;;11.56;56.40
55687;BME280;41911;52.362;4.978;2022-10-16T02:47:31;100889.79;;;11.59;55.85
55687;BME280;41911;52.362;4.978;2022-10-16T02:48:02;100888.27;;;11.78;56.32
55687;BME280;41911;52.362;4.978;2022-10-16T02:48:33;100888.36;;;11.66;56.59
55687;BME280;41911;52.362;4.978;2022-10-16T02:49:04;100894.48;;;11.84;56.48
55687;BME280;41911;52.362;4.978;2022-10-16T02:49:35;100888.93;;;11.21;56.94
55687;BME280;41911;52.362;4.978;2022-10-16T02:50:06;100895.96;;;11.91;56.39
55687;BME280;41911;52.362;4.978;2022-10-16T02:50:38;100891.65;;;12.17;55.80
55687;BME280;41911;52.362;4.978;2022-10-16T02:51:09;100892.66;;;12.10;55.52
55687;BME280;41911;52.362;4.978;2022-10-16T02:51:39;100900.78;;;12.12;55.79
55687;BME280;41911;52.362;4.978;2022-10-16T02:52:10;100891.21;;;11.41;56.17
55687;BME280;41911;52.362;4.978;2022-10-16T02:52:42;100896.59;;;11.79;55.89
55687;BME280;41911;52.362;4.978;2022-10-16T02:53:14;100890.54;;;12.20;55.67
55687;BME280;41911;52.362;4.978;2022-10-16T02:53:45;100888.53;;;11.87;55.33
55687;BME280;41911;52.362;4.978;2022-10-16T02:54:16;100888.89;;;12.01;55.34
55687;BME280;41911;52.362;4.978;2022-10-16T02:54:47;100887.33;;;12.26;55.07
55687;BME280;41911;52.362;4.978;2022-10-16T02:55:18;100888.32;;;12.43;54.87
55687;BME280;41911;52.362;4.978;2022-10-16T02:55:49;100891.74;;;12.15;55.00
55687;BME280;41911;52.362;4.978;2022-10-16T02:56:20;100889.26;;;12.46;54.68
55687;BME280;41911;52.362;4.978;2022-10-16T02:56:53;100891.68;;;12.33;54.83
55687;BME280;41911;52.362;4.978;2022-10-16T02:57:24;100890.01;;;12.53;54.53
55687;BME280;41911;52.362;4.978;2022-10-16T02:57:55;100893.70;;;12.24;54.55
55687;BME280;41911;52.362;4.978;2022-10-16T02:58:26;100891.82;;;12.45;54.45
55687;BME280;41911;52.362;4.978;2022-10-16T02:58:57;100892.56;;;12.31;54.48
55687;BME280;41911;52.362;4.978;2022-10-16T02:59:28;100896.84;;;12.10;55.19
55687;BME280;41911;52.362;4.978;2022-10-16T03:00:00;100897.47;;;11.71;55.21
55687;BME280;41911;52.362;4.978;2022-10-16T03:00:31;100896.77;;;12.13;54.99